Time;durP1;ratioP1;P1;durP2;ratioP2;P2;SDS_P1;SDS_P2;PMS_P1;PMS_P2;Temp;Humidity;BMP_temperature;BMP_pressure;BME280_temperature;BME280_humidity;BME280_pressure;Samples;Min_cycle;Max_cycle;Signal;HPM_P1;HPM_P2
2021/05/07 00:01:06;;;;;;;12.52;9.38;;;4.80;99.90;;;;;;5042460;28;20459;-58
2021/05/07 00:03:31;;;;;;;13.15;9.65;;;4.80;99.90;;;;;;5042717;28;20112;-58
2021/05/07 00:05:57;;;;;;;16.38;10.57;;;4.80;99.90;;;;;;5042232;28;20049;-60
2021/05/07 00:08:28;;;;;;;13.75;9.38;;;4.80;99.90;;;;;;5042736;28;20443;-59
2021/05/07 00:10:55;;;;;;;16.38;10.13;;;4.80;99.90;;;;;;5042319;28;20045;-59
2021/05/07 00:13:21;;;;;;;14.73;10.25;;;4.80;99.90;;;;;;5042142;28;20400;-60
2021/05/07 00:15:47;;;;;;;14.02;10.10;;;4.80;99.90;;;;;;5041587;28;20033;-60
2021/05/07 00:18:12;;;;;;;13.10;9.85;;;4.80;99.90;;;;;;5033322;28;20044;-61
2021/05/07 00:20:38;;;;;;;;;;;4.80;99.90;;;;;;5037272;28;20489;-57
2021/05/07 00:23:04;;;;;;;14.15;9.20;;;4.80;99.90;;;;;;5041077;28;19931;-58
2021/05/07 00:25:29;;;;;;;15.20;10.77;;;4.80;99.90;;;;;;5048306;28;20083;-59
2021/05/07 00:28:01;;;;;;;;;;;4.80;99.90;;;;;;5049644;28;20500;-57
2021/05/07 00:30:26;;;;;;;11.05;9.02;;;4.80;99.90;;;;;;5048053;28;20404;-60
2021/05/07 00:32:52;;;;;;;17.98;12.80;;;4.80;99.90;;;;;;5056569;28;20059;-60
2021/05/07 00:35:18;;;;;;;;;;;4.80;99.90;;;;;;5040955;28;20128;-56
2021/05/07 00:37:43;;;;;;;13.63;9.65;;;4.70;99.90;;;;;;5049463;28;19971;-57
2021/05/07 00:40:09;;;;;;;10.40;7.40;;;4.60;99.90;;;;;;5047724;28;20040;-60
2021/05/07 00:42:35;;;;;;;7.40;6.55;;;4.60;99.90;;;;;;5048879;28;20069;-59
2021/05/07 00:45:00;;;;;;;9.75;7.90;;;4.60;99.90;;;;;;5047116;28;20065;-60
2021/05/07 00:47:26;;;;;;;;;;;4.40;99.90;;;;;;5047137;28;20045;-61
2021/05/07 00:49:53;;;;;;;6.47;5.45;;;4.30;99.90;;;;;;5039048;28;19920;-53
2021/05/07 00:52:18;;;;;;;6.38;5.18;;;4.30;99.90;;;;;;5048357;28;20408;-58
2021/05/07 00:54:44;;;;;;;6.47;5.45;;;4.30;99.90;;;;;;5048128;28;20143;-60
2021/05/07 00:57:10;;;;;;;8.70;4.97;;;4.30;99.90;;;;;;5051410;28;20475;-60
2021/05/07 00:59:35;;;;;;;;;;;4.20;99.90;;;;;;5040291;28;20128;-60
2021/05/07 01:02:01;;;;;;;11.75;9.00;;;4.10;99.90;;;;;;5047483;28;19924;-58
2021/05/07 01:04:26;;;;;;;11.75;8.93;;;3.90;99.90;;;;;;5047745;28;20037;-58
2021/05/07 01:06:52;;;;;;;;;;;3.90;99.90;;;;;;5048636;28;20044;-59
2021/05/07 01:09:17;;;;;;;11.30;8.45;;;3.90;99.90;;;;;;5047982;28;20406;-61
2021/05/07 01:11:43;;;;;;;11.13;8.80;;;3.90;99.90;;;;;;5047948;28;20041;-60
2021/05/07 01:14:09;;;;;;;11.68;8.80;;;3.90;99.90;;;;;;5047694;28;20497;-57
2021/05/07 01:16:34;;;;;;;13.90;9.65;;;3.90;99.90;;;;;;5047316;28;20037;-55
2021/05/07 01:19:00;;;;;;;;;;;3.80;99.90;;;;;;5048554;28;20144;-60
2021/05/07 01:21:27;;;;;;;13.68;9.15;;;3.70;99.90;;;;;;5048233;28;19956;-59
2021/05/07 01:23:53;;;;;;;9.90;7.35;;;3.50;99.90;;;;;;5048227;28;20512;-59
2021/05/07 01:26:19;;;;;;;8.75;6.45;;;3.40;99.90;;;;;;5047504;28;20528;-59
2021/05/07 01:28:44;;;;;;;6.57;5.18;;;3.50;99.90;;;;;;5047434;28;20110;-60
2021/05/07 01:31:10;;;;;;;6.22;4.72;;;3.40;99.90;;;;;;5047347;28;20477;-59
2021/05/07 01:33:36;;;;;;;7.10;5.20;;;3.30;99.90;;;;;;5047766;28;20060;-55
2021/05/07 01:36:02;;;;;;;7.03;5.25;;;3.20;99.90;;;;;;5047248;28;20115;-60
2021/05/07 01:38:27;;;;;;;6.82;5.15;;;3.40;99.90;;;;;;5039721;28;20421;-60
2021/05/07 01:40:53;;;;;;;5.80;4.05;;;3.30;99.90;;;;;;5047070;28;20040;-59
2021/05/07 01:43:20;;;;;;;4.18;3.40;;;3.30;99.90;;;;;;5047521;28;20607;-60
2021/05/07 01:45:47;;;;;;;5.18;3.97;;;3.30;99.90;;;;;;5046476;28;20089;-59
2021/05/07 01:48:13;;;;;;;5.95;3.88;;;3.20;99.90;;;;;;5047751;28;20068;-61
2021/05/07 01:50:41;;;;;;;4.78;3.40;;;3.20;99.90;;;;;;5046793;28;20120;-58
2021/05/07 01:53:08;;;;;;;5.18;4.00;;;3.30;99.90;;;;;;5047182;28;20040;-59
2021/05/07 01:55:36;;;;;;;4.85;3.35;;;3.30;99.90;;;;;;5046768;28;20128;-59
2021/05/07 01:58:06;;;;;;;5.22;4.10;;;3.40;99.90;;;;;;5046902;28;20041;-61
2021/05/07 02:00:32;;;;;;;5.25;4.15;;;3.50;99.90;;;;;;5047823;28;20052;-60
2021/05/07 02:03:00;;;;;;;9.05;4.90;;;3.40;99.90;;;;;;5047131;28;20687;-61
2021/05/07 02:05:27;;;;;;;5.93;4.10;;;3.50;99.90;;;;;;5046821;28;20052;-60
2021/05/07 02:07:54;;;;;;;5.45;4.50;;;3.50;99.90;;;;;;5047670;28;20071;-57
2021/05/07 02:10:24;;;;;;;7.65;4.72;;;3.50;99.90;;;;;;5046711;28;20122;-60
2021/05/07 02:12:52;;;;;;;6.28;4.60;;;3.50;99.90;;;;;;5047097;28;20036;-59
2021/05/07 02:15:21;;;;;;;6.13;4.47;;;3.40;99.90;;;;;;5045720;28;20086;-60
2021/05/07 02:17:47;;;;;;;10.55;5.88;;;3.40;99.90;;;;;;5047487;28;20485;-57
2021/05/07 02:20:14;;;;;;;9.88;6.40;;;3.30;99.90;;;;;;5046424;28;20442;-58
2021/05/07 02:22:45;;;;;;;7.57;6.15;;;3.30;99.90;;;;;;5046937;28;20037;-59
2021/05/07 02:25:11;;;;;;;8.50;5.63;;;3.20;99.90;;;;;;5046627;28;20049;-60
2021/05/07 02:27:37;;;;;;;10.27;6.88;;;3.30;99.90;;;;;;5046662;28;20572;-60
2021/05/07 02:30:04;;;;;;;10.75;5.93;;;3.20;99.90;;;;;;5046594;28;20131;-58
2021/05/07 02:32:30;;;;;;;9.63;6.60;;;3.30;99.90;;;;;;5046070;28;20056;-54
2021/05/07 02:34:55;;;;;;;9.65;6.72;;;3.20;99.90;;;;;;5046758;28;20041;-55
2021/05/07 02:37:21;;;;;;;;;;;3.20;99.90;;;;;;5046993;28;20449;-58
2021/05/07 02:39:46;;;;;;;12.50;7.28;;;3.20;99.90;;;;;;5043355;28;19917;-59
2021/05/07 02:42:12;;;;;;;10.52;7.65;;;3.20;99.90;;;;;;5039982;28;20041;-59
2021/05/07 02:44:38;;;;;;;12.65;7.75;;;3.30;99.90;;;;;;5046664;28;20041;-60
2021/05/07 02:47:04;;;;;;;14.45;7.97;;;3.30;99.90;;;;;;5046530;28;20110;-59
2021/05/07 02:49:36;;;;;;;9.57;6.85;;;3.30;99.90;;;;;;5046316;28;20063;-59
2021/05/07 02:52:03;;;;;;;10.57;7.90;;;3.40;99.90;;;;;;5041659;28;20043;-58
2021/05/07 02:54:32;;;;;;;17.15;9.23;;;3.40;99.90;;;;;;5045180;28;20041;-60
2021/05/07 02:56:58;;;;;;;22.70;9.20;;;3.30;99.90;;;;;;5039441;28;20088;-59
2021/05/07 02:59:24;;;;;;;18.88;10.02;;;3.20;99.90;;;;;;5026453;28;20067;-61
2021/05/07 03:01:50;;;;;;;17.25;10.02;;;3.20;99.90;;;;;;5026180;28;20037;-61
2021/05/07 03:04:18;;;;;;;17.27;10.88;;;3.20;99.90;;;;;;5026144;28;20104;-59
2021/05/07 03:06:43;;;;;;;18.70;9.80;;;3.10;99.90;;;;;;5026704;28;20431;-52
2021/05/07 03:09:09;;;;;;;18.85;11.20;;;3.20;99.90;;;;;;5026216;28;20033;-58
2021/05/07 03:11:34;;;;;;;22.13;11.07;;;3.10;99.90;;;;;;5026606;28;20309;-55
2021/05/07 03:14:00;;;;;;;21.65;11.10;;;3.10;99.90;;;;;;5026172;28;20030;-56
2021/05/07 03:16:25;;;;;;;20.80;11.82;;;3.20;99.90;;;;;;5026169;28;20471;-59
2021/05/07 03:18:51;;;;;;;18.85;11.10;;;3.10;99.90;;;;;;5027639;28;20033;-60
2021/05/07 03:21:17;;;;;;;24.00;11.30;;;3.10;99.90;;;;;;5046720;28;20090;-54
2021/05/07 03:23:43;;;;;;;18.85;11.65;;;3.20;99.90;;;;;;5046649;28;20043;-57
2021/05/07 03:26:09;;;;;;;21.05;12.32;;;2.90;99.90;;;;;;5045468;28;20041;-60
2021/05/07 03:28:37;;;;;;;23.15;12.45;;;2.90;99.90;;;;;;5046463;28;20554;-56
2021/05/07 03:31:02;;;;;;;24.05;12.82;;;2.90;99.90;;;;;;5045822;28;20468;-54
2021/05/07 03:33:28;;;;;;;21.08;12.05;;;2.90;99.90;;;;;;5045674;28;20041;-58
2021/05/07 03:35:54;;;;;;;24.10;13.25;;;3.00;99.90;;;;;;5046288;28;20041;-58
2021/05/07 03:38:19;;;;;;;22.98;11.73;;;3.00;99.90;;;;;;5046373;28;20054;-60
2021/05/07 03:40:45;;;;;;;24.95;13.93;;;3.10;99.90;;;;;;5046053;28;20044;-62
2021/05/07 03:43:10;;;;;;;26.25;14.40;;;3.10;99.90;;;;;;5047040;28;20483;-59
2021/05/07 03:45:36;;;;;;;21.42;13.80;;;3.10;99.90;;;;;;5045439;28;20493;-57
2021/05/07 03:48:21;;;;;;;24.23;14.80;;;3.10;99.90;;;;;;5046101;28;20063;-60
2021/05/07 03:50:48;;;;;;;25.58;14.15;;;3.10;99.90;;;;;;5044592;28;20481;-62
2021/05/07 03:53:15;;;;;;;24.08;14.63;;;3.10;99.90;;;;;;5047419;28;20044;-60
2021/05/07 03:55:42;;;;;;;26.63;13.50;;;3.10;99.90;;;;;;5049160;28;20048;-59
2021/05/07 03:58:08;;;;;;;27.33;15.50;;;3.00;99.90;;;;;;5049959;28;20065;-56
2021/05/07 04:00:34;;;;;;;25.27;14.60;;;3.10;99.90;;;;;;5049623;28;20122;-60
2021/05/07 04:03:00;;;;;;;27.88;15.18;;;3.00;99.90;;;;;;5049531;28;20045;-60
2021/05/07 04:05:26;;;;;;;29.20;15.75;;;3.00;99.90;;;;;;5049622;28;20075;-60
2021/05/07 04:08:37;;;;;;;27.58;15.18;;;3.00;99.90;;;;;;5049228;28;20055;-60
2021/05/07 04:10:43;;;;;;;26.85;12.88;;;3.00;99.90;;;;;;5046201;28;20631;-58
2021/05/07 04:15:53;;;;;;;27.63;15.23;;;2.90;99.90;;;;;;5048088;28;20045;-55
2021/05/07 04:18:19;;;;;;;31.83;17.67;;;2.90;99.90;;;;;;5043324;28;20692;-59
2021/05/07 04:20:44;;;;;;;29.05;17.15;;;2.80;99.90;;;;;;5047440;28;20104;-55
2021/05/07 04:23:10;;;;;;;26.48;16.67;;;2.80;99.90;;;;;;5048475;28;20128;-59
2021/05/07 04:25:36;;;;;;;29.20;16.55;;;2.80;99.90;;;;;;5048464;28;20060;-60
2021/05/07 04:28:01;;;;;;;27.38;16.55;;;2.80;99.90;;;;;;5047846;28;20090;-60
2021/05/07 04:30:27;;;;;;;32.90;19.05;;;2.90;99.90;;;;;;5049991;28;20048;-59
2021/05/07 04:32:52;;;;;;;24.98;14.52;;;2.90;99.90;;;;;;5048409;28;20045;-57
2021/05/07 04:35:18;;;;;;;33.35;17.65;;;2.90;99.90;;;;;;5039680;28;20025;-59
2021/05/07 04:37:44;;;;;;;26.67;15.85;;;2.90;99.90;;;;;;5047415;28;20072;-55
2021/05/07 04:40:10;;;;;;;27.38;16.05;;;2.90;99.90;;;;;;5048715;28;20053;-60
2021/05/07 04:42:35;;;;;;;26.58;15.43;;;3.00;99.90;;;;;;5048990;28;20037;-60
2021/05/07 04:45:01;;;;;;;28.60;14.75;;;3.00;99.90;;;;;;5048791;28;20491;-57
2021/05/07 04:47:26;;;;;;;25.65;15.73;;;3.00;99.90;;;;;;5048795;28;20053;-60
2021/05/07 04:49:52;;;;;;;27.05;14.63;;;3.00;99.90;;;;;;5048462;28;20044;-59
2021/05/07 04:52:17;;;;;;;27.98;16.13;;;3.00;99.90;;;;;;5048104;28;20112;-54
2021/05/07 04:54:43;;;;;;;27.90;14.48;;;3.00;99.90;;;;;;5048514;28;20390;-56
2021/05/07 04:57:08;;;;;;;23.50;15.68;;;3.00;99.90;;;;;;5049114;28;20068;-51
2021/05/07 04:59:34;;;;;;;25.10;14.70;;;3.10;99.90;;;;;;5045182;28;20032;-58
2021/05/07 05:01:59;;;;;;;25.23;15.10;;;3.10;99.90;;;;;;5040040;28;20033;-58
2021/05/07 05:04:25;;;;;;;25.00;15.73;;;3.30;99.90;;;;;;5048096;28;20052;-55
2021/05/07 05:06:50;;;;;;;28.20;15.00;;;3.30;99.90;;;;;;5049078;28;20045;-55
2021/05/07 05:09:16;;;;;;;23.00;15.05;;;3.40;99.90;;;;;;5048296;28;20044;-56
2021/05/07 05:11:41;;;;;;;25.15;14.18;;;3.60;99.90;;;;;;5048737;28;20128;-60
2021/05/07 05:14:07;;;;;;;25.48;13.98;;;4.30;99.90;;;;;;5046535;28;20116;-58
2021/05/07 05:16:32;;;;;;;;;;;4.80;99.90;;;;;;5048499;28;20101;-59
2021/05/07 05:18:58;;;;;;;22.25;15.13;;;5.20;99.90;;;;;;5039544;28;19917;-59
2021/05/07 05:21:23;;;;;;;23.45;14.95;;;4.90;99.90;;;;;;5048465;28;20728;-60
2021/05/07 05:23:49;;;;;;;21.13;13.80;;;4.70;99.90;;;;;;5048456;28;20033;-60
2021/05/07 05:26:15;;;;;;;;;;;4.40;99.90;;;;;;5048729;28;20126;-59
2021/05/07 05:28:41;;;;;;;21.45;14.02;;;4.40;99.90;;;;;;5048172;28;20392;-59
2021/05/07 05:31:06;;;;;;;29.20;16.17;;;4.40;99.90;;;;;;5047495;28;20074;-60
2021/05/07 05:33:32;;;;;;;25.95;15.98;;;4.30;99.90;;;;;;5048389;28;20041;-57
2021/05/07 05:35:57;;;;;;;;;;;4.30;99.90;;;;;;5048783;28;21017;-60
2021/05/07 05:38:23;;;;;;;25.05;16.17;;;4.20;99.90;;;;;;5047232;28;20002;-57
2021/05/07 05:40:49;;;;;;;26.95;15.73;;;4.20;99.90;;;;;;5047440;28;20033;-60
2021/05/07 05:43:15;;;;;;;29.50;17.00;;;4.20;99.90;;;;;;5047768;28;20044;-57
2021/05/07 05:45:41;;;;;;;24.65;14.25;;;4.70;99.90;;;;;;5047976;28;20097;-59
2021/05/07 05:48:14;;;;;;;21.27;13.00;;;5.10;99.90;;;;;;5049557;28;20040;-58
2021/05/07 05:50:47;;;;;;;20.52;12.93;;;6.10;99.90;;;;;;5047142;28;20036;-58
2021/05/07 05:53:13;;;;;;;21.20;12.52;;;6.40;99.90;;;;;;5047853;28;20074;-61
2021/05/07 05:55:38;;;;;;;;;;;6.80;99.90;;;;;;5047676;28;20044;-58
2021/05/07 05:58:05;;;;;;;19.50;12.75;;;6.80;99.40;;;;;;5047804;28;20023;-59
2021/05/07 06:00:31;;;;;;;22.42;13.02;;;6.60;99.90;;;;;;5047913;28;20496;-59
2021/05/07 06:02:56;;;;;;;;;;;6.60;99.90;;;;;;5049132;28;20044;-58
2021/05/07 06:05:22;;;;;;;17.95;11.95;;;6.00;99.40;;;;;;5060565;28;20299;-59
2021/05/07 06:07:47;;;;;;;;;;;5.90;99.90;;;;;;5041814;28;20525;-57
2021/05/07 06:10:14;;;;;;;19.23;12.05;;;6.00;99.90;;;;;;5048623;28;20297;-61
2021/05/07 06:12:41;;;;;;;20.67;12.82;;;6.80;99.90;;;;;;5047269;28;20582;-59
2021/05/07 06:15:07;;;;;;;17.25;12.27;;;6.80;99.90;;;;;;5045744;28;20097;-61
2021/05/07 06:17:33;;;;;;;19.65;13.20;;;7.10;99.90;;;;;;5046775;28;20123;-59
2021/05/07 06:20:02;;;;;;;;;;;7.40;99.30;;;;;;5048114;28;20444;-59
2021/05/07 06:22:29;;;;;;;17.08;11.77;;;8.50;97.40;;;;;;5047400;28;19917;-58
2021/05/07 06:24:55;;;;;;;14.45;10.10;;;9.30;95.20;;;;;;5046620;28;20087;-52
2021/05/07 06:27:21;;;;;;;17.83;11.43;;;9.60;93.90;;;;;;5046549;28;20126;-56
2021/05/07 06:29:46;;;;;;;;;;;8.80;94.20;;;;;;5047619;28;20045;-55
2021/05/07 06:32:12;;;;;;;15.40;10.40;;;8.20;94.80;;;;;;5043145;28;20007;-57
2021/05/07 06:34:37;;;;;;;;;;;7.90;95.50;;;;;;5038495;28;20032;-56
2021/05/07 06:37:03;;;;;;;19.33;10.13;;;7.60;96.50;;;;;;5046974;28;19921;-58
2021/05/07 06:39:30;;;;;;;;;;;7.40;96.20;;;;;;5047248;28;20429;-59
2021/05/07 06:41:57;;;;;;;19.30;9.50;;;7.40;97.00;;;;;;5046201;28;19916;-60
2021/05/07 06:44:24;;;;;;;14.25;9.23;;;7.20;96.00;;;;;;5046834;28;20155;-61
2021/05/07 06:46:49;;;;;;;14.35;9.90;;;7.90;96.70;;;;;;5047116;28;20073;-58
2021/05/07 06:49:15;;;;;;;;;;;9.00;95.30;;;;;;5046853;28;20509;-52
2021/05/07 06:51:40;;;;;;;11.00;8.38;;;9.90;91.90;;;;;;5045471;28;19962;-57
2021/05/07 06:54:08;;;;;;;;;;;10.20;89.70;;;;;;5036550;28;20112;-56
2021/05/07 06:56:33;;;;;;;13.70;9.30;;;9.90;89.90;;;;;;5040579;28;19917;-57
2021/05/07 06:58:59;;;;;;;;;;;10.00;90.80;;;;;;5036012;28;20052;-59
2021/05/07 07:01:24;;;;;;;15.43;9.27;;;9.50;91.20;;;;;;5042789;28;19967;-55
2021/05/07 07:03:51;;;;;;;;;;;8.90;92.70;;;;;;5042711;28;20528;-56
2021/05/07 07:06:16;;;;;;;15.77;8.70;;;7.70;93.50;;;;;;5042510;28;20385;-57
2021/05/07 07:08:42;;;;;;;;;;;7.40;95.50;;;;;;5036476;28;20103;-55
2021/05/07 07:11:08;;;;;;;13.23;8.45;;;7.20;94.90;;;;;;5033719;28;19952;-58
2021/05/07 07:13:33;;;;;;;;;;;7.10;95.90;;;;;;5038024;28;20044;-57
2021/05/07 07:15:59;;;;;;;14.20;9.25;;;7.00;94.30;;;;;;5046246;28;19916;-58
2021/05/07 07:18:25;;;;;;;;;;;7.50;95.20;;;;;;5046572;28;20068;-58
2021/05/07 07:20:51;;;;;;;14.15;7.75;;;8.90;92.10;;;;;;5038151;28;19936;-56
2021/05/07 07:23:17;;;;;;;;;;;8.60;91.30;;;;;;5047681;28;20033;-58
2021/05/07 07:25:43;;;;;;;14.65;6.20;;;8.40;92.30;;;;;;5049508;28;20451;-54
2021/05/07 07:28:09;;;;;;;7.68;5.47;;;8.50;90.50;;;;;;5051738;28;20033;-57
2021/05/07 07:30:34;;;;;;;;;;;9.30;90.90;;;;;;5042306;28;20052;-58
2021/05/07 07:33:00;;;;;;;8.60;5.78;;;9.70;88.70;;;;;;5050702;28;20296;-58
2021/05/07 07:35:26;;;;;;;10.75;6.53;;;9.20;89.70;;;;;;5050022;28;20046;-55
2021/05/07 07:37:52;;;;;;;;;;;8.20;90.60;;;;;;5050714;28;20040;-55
2021/05/07 07:40:17;;;;;;;9.80;5.63;;;7.70;93.00;;;;;;5050415;28;19970;-57
2021/05/07 07:42:43;;;;;;;;;;;7.50;94.10;;;;;;5051187;28;20397;-57
2021/05/07 07:45:10;;;;;;;13.63;6.57;;;7.10;94.60;;;;;;5049734;28;19917;-58
2021/05/07 07:47:36;;;;;;;13.10;6.15;;;6.90;94.30;;;;;;5049853;28;20772;-57
2021/05/07 07:50:03;;;;;;;;;;;6.80;95.60;;;;;;5050069;28;20036;-55
2021/05/07 07:52:30;;;;;;;10.90;6.05;;;6.60;95.00;;;;;;5050221;28;19923;-58
2021/05/07 07:54:56;;;;;;;10.05;6.53;;;6.50;95.60;;;;;;5049009;28;20284;-56
2021/05/07 07:57:21;;;;;;;;;;;6.50;95.90;;;;;;5049827;28;20037;-58
2021/05/07 07:59:47;;;;;;;11.40;5.78;;;7.10;95.10;;;;;;5050227;28;20519;-56
2021/05/07 08:02:12;;;;;;;;;;;8.20;94.20;;;;;;5049860;28;20112;-52
2021/05/07 08:04:38;;;;;;;9.95;4.28;;;10.10;91.10;;;;;;5049832;28;19982;-58
2021/05/07 08:07:03;;;;;;;;;;;11.90;83.70;;;;;;5049427;28;20036;-58
2021/05/07 08:09:29;;;;;;;7.10;4.30;;;13.50;80.00;;;;;;5049791;28;19924;-58
2021/05/07 08:11:54;;;;;;;;;;;14.70;75.10;;;;;;5041763;28;20048;-57
2021/05/07 08:14:20;;;;;;;4.95;3.40;;;13.70;65.70;;;;;;5049894;28;19916;-56
2021/05/07 08:16:45;;;;;;;;;;;13.60;67.70;;;;;;5048980;28;20045;-58
2021/05/07 08:19:11;;;;;;;6.72;3.20;;;13.20;69.50;;;;;;5049554;28;20284;-59
2021/05/07 08:21:37;;;;;;;;;;;12.20;69.60;;;;;;5049873;28;20493;-57
2021/05/07 08:24:03;;;;;;;4.95;3.60;;;11.20;73.80;;;;;;5048955;28;19960;-57
2021/05/07 08:26:29;;;;;;;6.13;3.80;;;10.00;77.90;;;;;;5049052;28;20436;-58
2021/05/07 08:28:54;;;;;;;;;;;8.90;83.50;;;;;;5049882;28;20168;-56
2021/05/07 08:31:20;;;;;;;4.80;2.75;;;8.50;83.10;;;;;;5048899;28;20003;-57
2021/05/07 08:33:45;;;;;;;;;;;7.90;82.00;;;;;;5050894;28;20642;-53
2021/05/07 08:36:11;;;;;;;4.93;2.75;;;7.50;83.60;;;;;;5047033;28;19952;-56
2021/05/07 08:38:36;;;;;;;;;;;7.40;87.20;;;;;;5038256;28;20048;-57
2021/05/07 08:41:03;;;;;;;8.43;3.95;;;7.10;87.20;;;;;;5037511;28;19971;-57
2021/05/07 08:43:29;;;;;;;5.40;3.65;;;7.00;87.20;;;;;;5042946;28;20041;-57
2021/05/07 08:45:55;;;;;;;9.73;3.40;;;7.10;88.50;;;;;;5046304;28;20041;-50
2021/05/07 08:48:22;;;;;;;;;;;7.00;90.80;;;;;;5043822;28;20033;-57
2021/05/07 08:50:49;;;;;;;9.45;4.35;;;6.70;90.90;;;;;;5046850;28;19920;-57
2021/05/07 08:53:16;;;;;;;10.07;4.93;;;6.50;92.90;;;;;;5040604;28;20046;-58
2021/05/07 08:55:42;;;;;;;8.05;4.90;;;6.30;94.10;;;;;;5039504;28;20044;-50
2021/05/07 08:58:07;;;;;;;;;;;5.90;96.00;;;;;;5037660;28;20033;-55
2021/05/07 09:00:33;;;;;;;7.90;5.43;;;5.70;96.70;;;;;;5038278;28;19921;-56
2021/05/07 09:03:09;;;;;;;;;;;5.30;98.30;;;;;;5029849;28;20045;-55
2021/05/07 09:05:37;;;;;;;7.25;5.05;;;5.30;98.20;;;;;;5028766;28;19971;-56
2021/05/07 09:08:03;;;;;;;6.97;4.47;;;5.20;98.40;;;;;;5044246;28;20045;-57
2021/05/07 09:10:45;;;;;;;7.28;4.57;;;5.00;99.70;;;;;;5037489;28;20045;-51
2021/05/07 09:13:19;;;;;;;7.15;4.38;;;5.10;99.90;;;;;;5038999;28;20033;-55
2021/05/07 09:15:48;;;;;;;7.82;4.78;;;5.20;99.30;;;;;;5038594;28;20037;-55
2021/05/07 09:18:15;;;;;;;6.65;4.70;;;5.20;99.90;;;;;;5039712;28;20041;-54
2021/05/07 09:20:49;;;;;;;8.25;4.32;;;5.10;99.00;;;;;;5044589;28;20110;-58
2021/05/07 09:23:17;;;;;;;7.10;4.90;;;5.00;99.40;;;;;;5044129;28;20037;-57
2021/05/07 09:25:58;;;;;;;7.63;4.65;;;5.00;99.40;;;;;;5029175;28;20041;-56
2021/05/07 09:28:23;;;;;;;8.00;4.50;;;5.00;99.90;;;;;;5042376;28;20040;-57
2021/05/07 09:30:49;;;;;;;;;;;5.10;99.90;;;;;;5033507;28;20152;-52
2021/05/07 09:33:16;;;;;;;6.20;3.92;;;5.00;99.90;;;;;;5041300;28;19991;-55
2021/05/07 09:35:43;;;;;;;5.57;4.18;;;4.90;99.90;;;;;;5042500;28;20040;-56
2021/05/07 09:38:12;;;;;;;6.57;4.70;;;4.90;99.90;;;;;;5046822;28;20124;-55
2021/05/07 09:40:40;;;;;;;5.75;4.38;;;4.90;99.90;;;;;;5048144;28;20036;-55
2021/05/07 09:43:15;;;;;;;6.57;3.92;;;5.00;99.90;;;;;;5038846;28;20032;-55
2021/05/07 09:45:45;;;;;;;7.18;4.30;;;5.00;99.90;;;;;;5038024;28;20432;-51
2021/05/07 09:48:25;;;;;;;6.22;4.00;;;5.00;99.90;;;;;;5042149;28;20041;-54
2021/05/07 09:51:02;;;;;;;4.10;3.10;;;4.90;99.90;;;;;;5045705;28;20037;-51
2021/05/07 09:53:37;;;;;;;4.18;3.10;;;4.80;99.90;;;;;;5048063;28;20045;-55
2021/05/07 09:56:19;;;;;;;4.38;3.25;;;4.80;99.90;;;;;;5048264;28;20048;-55
2021/05/07 09:58:44;;;;;;;6.80;2.83;;;4.70;99.90;;;;;;5047764;28;20135;-57
2021/05/07 10:01:10;;;;;;;;;;;4.80;99.90;;;;;;5048645;28;20116;-51
2021/05/07 10:03:36;;;;;;;3.75;2.40;;;4.80;99.90;;;;;;5048479;28;20303;-51
2021/05/07 10:06:03;;;;;;;3.92;2.47;;;4.80;99.90;;;;;;5047523;28;20041;-56
2021/05/07 10:08:30;;;;;;;2.38;1.80;;;5.00;99.90;;;;;;5047497;28;20051;-58
2021/05/07 10:11:00;;;;;;;2.42;2.00;;;5.10;99.90;;;;;;5047694;28;20036;-57
2021/05/07 10:13:36;;;;;;;2.53;2.25;;;5.50;99.90;;;;;;5043070;28;20037;-58
2021/05/07 10:16:03;;;;;;;3.77;2.83;;;5.50;99.90;;;;;;5045050;28;20040;-57
2021/05/07 10:18:31;;;;;;;3.40;2.30;;;5.80;99.90;;;;;;5054316;28;20036;-51
2021/05/07 10:21:08;;;;;;;4.30;2.80;;;6.20;99.90;;;;;;5046434;28;20067;-54
2021/05/07 10:23:35;;;;;;;5.13;3.03;;;6.20;99.90;;;;;;5046573;28;20041;-58
2021/05/07 10:26:03;;;;;;;3.17;2.40;;;6.20;99.90;;;;;;5041051;28;20093;-56
2021/05/07 10:28:43;;;;;;;3.25;2.60;;;6.20;99.40;;;;;;5041541;28;20040;-55
2021/05/07 10:31:10;;;;;;;9.10;5.30;;;6.40;99.90;;;;;;5042945;28;20441;-55
2021/05/07 10:33:36;;;;;;;3.53;2.63;;;6.80;99.90;;;;;;5037848;28;20045;-52
2021/05/07 10:36:02;;;;;;;;;;;6.40;98.80;;;;;;5058275;28;20036;-50
2021/05/07 10:38:28;;;;;;;3.67;2.85;;;6.20;99.10;;;;;;5043486;28;19916;-57
2021/05/07 10:41:08;;;;;;;;;;;6.10;98.40;;;;;;5058475;28;20037;-54
2021/05/07 10:43:46;;;;;;;80.65;49.28;;;6.40;99.90;;;;;;5050028;28;19967;-55
2021/05/07 10:46:22;;;;;;;5.18;3.72;;;6.60;99.20;;;;;;5044497;28;20440;-56
2021/05/07 10:48:52;;;;;;;11.20;3.10;;;6.40;97.60;;;;;;5054859;28;20041;-59
2021/05/07 10:51:17;;;;;;;10.27;6.63;;;6.70;98.70;;;;;;5047555;28;20498;-58
2021/05/07 10:53:43;;;;;;;;;;;7.30;98.90;;;;;;5046888;28;20061;-59
2021/05/07 10:56:20;;;;;;;2.55;1.77;;;7.20;97.60;;;;;;5051669;28;19928;-58
2021/05/07 10:58:47;;;;;;;3.22;1.92;;;7.10;99.00;;;;;;5038137;28;20095;-59
2021/05/07 11:01:28;;;;;;;2.75;2.00;;;7.20;97.30;;;;;;5045589;28;20037;-57
2021/05/07 11:04:21;;;;;;;6.63;2.72;;;7.50;97.40;;;;;;5042213;22;20883;-61
2021/05/07 11:06:46;;;;;;;4.20;2.03;;;7.80;97.90;;;;;;5043725;28;20527;-61
2021/05/07 11:09:12;;;;;;;;;;;7.70;94.00;;;;;;5080430;22;20039;-56
2021/05/07 11:11:38;;;;;;;3.05;1.55;;;7.70;95.40;;;;;;5089422;28;19924;-57
2021/05/07 11:14:06;;;;;;;;;;;7.90;91.60;;;;;;5064841;28;20035;-55
2021/05/07 11:16:39;;;;;;;3.40;2.20;;;7.70;92.30;;;;;;5106685;28;19916;-57
2021/05/07 11:19:05;;;;;;;2.97;2.08;;;7.70;92.20;;;;;;5095002;28;20052;-60
2021/05/07 11:21:31;;;;;;;;;;;7.60;93.60;;;;;;5099021;28;20044;-58
2021/05/07 11:23:57;;;;;;;8.13;2.63;;;7.80;93.20;;;;;;5086425;28;19981;-55
2021/05/07 11:26:34;;;;;;;5.50;2.30;;;8.00;96.60;;;;;;5086860;28;20043;-55
2021/05/07 11:29:00;;;;;;;3.50;2.60;;;7.90;90.80;;;;;;5086909;28;20052;-62
2021/05/07 11:31:26;;;;;;;;;;;7.70;91.40;;;;;;5086985;28;20395;-57
2021/05/07 11:33:52;;;;;;;3.45;2.40;;;7.80;92.40;;;;;;5086579;28;19916;-58
2021/05/07 11:36:18;;;;;;;;;;;7.70;91.90;;;;;;5086763;28;20100;-55
2021/05/07 11:38:44;;;;;;;3.10;2.23;;;7.60;92.50;;;;;;5086526;28;19969;-55
2021/05/07 11:41:16;;;;;;;;;;;7.30;91.90;;;;;;5087783;28;20032;-57
2021/05/07 11:43:42;;;;;;;98.88;60.58;;;6.70;92.90;;;;;;5085994;28;20102;-51
2021/05/07 11:46:08;;;;;;;;;;;6.70;94.60;;;;;;5086026;28;20779;-55
2021/05/07 11:48:35;;;;;;;5.50;3.08;;;6.80;95.40;;;;;;5086859;28;19920;-54
2021/05/07 11:51:05;;;;;;;4.47;2.35;;;7.00;94.00;;;;;;5100647;28;20093;-53
2021/05/07 11:53:31;;;;;;;3.50;1.98;;;6.80;95.00;;;;;;5089620;28;20039;-57
2021/05/07 11:55:57;;;;;;;;;;;7.00;94.20;;;;;;5086734;28;20036;-55
2021/05/07 11:58:34;;;;;;;3.28;2.40;;;7.10;93.20;;;;;;5101983;28;19930;-55
2021/05/07 12:01:00;;;;;;;4.18;2.45;;;7.20;92.80;;;;;;5099399;28;20059;-56
2021/05/07 12:03:42;;;;;;;4.80;2.33;;;7.20;91.90;;;;;;5103667;28;20555;-55
2021/05/07 12:06:20;;;;;;;4.57;2.50;;;7.30;94.10;;;;;;5106758;28;20445;-57
2021/05/07 12:08:47;;;;;;;4.13;2.70;;;7.60;94.90;;;;;;5106650;28;20572;-56
2021/05/07 12:11:13;;;;;;;4.13;2.83;;;8.00;93.90;;;;;;5088583;28;20047;-58
2021/05/07 12:13:40;;;;;;;5.65;2.78;;;8.00;92.30;;;;;;5107840;28;20027;-57
2021/05/07 12:16:06;;;;;;;7.53;3.25;;;7.70;93.10;;;;;;5109582;28;20050;-59
2021/05/07 12:18:33;;;;;;;4.38;2.50;;;7.80;93.60;;;;;;5109781;28;20039;-53
2021/05/07 12:21:00;;;;;;;5.25;2.05;;;7.70;92.70;;;;;;5088161;28;20097;-55
2021/05/07 12:23:40;;;;;;;3.72;2.30;;;7.90;93.00;;;;;;5105216;28;20133;-58
2021/05/07 12:26:05;;;;;;;10.40;2.75;;;7.90;93.70;;;;;;5107597;28;20051;-57
2021/05/07 12:28:31;;;;;;;;;;;7.80;92.70;;;;;;5116041;27;20047;-58
2021/05/07 12:30:58;;;;;;;4.55;2.72;;;7.60;93.30;;;;;;5120476;27;19974;-54
2021/05/07 12:33:27;;;;;;;4.38;2.72;;;7.50;92.40;;;;;;5121720;27;20086;-52
2021/05/07 12:35:55;;;;;;;3.58;2.25;;;7.60;92.90;;;;;;5130063;27;20043;-54
2021/05/07 12:38:22;;;;;;;4.63;2.28;;;7.50;92.70;;;;;;5130700;27;20059;-50
2021/05/07 12:40:49;;;;;;;6.47;2.70;;;7.70;92.50;;;;;;5130219;27;20494;-56
2021/05/07 12:43:15;;;;;;;4.00;2.50;;;7.80;93.10;;;;;;5129900;27;20042;-56
2021/05/07 12:45:43;;;;;;;;;;;7.90;91.80;;;;;;5128740;27;20028;-56
2021/05/07 12:48:09;;;;;;;5.75;3.80;;;7.90;92.10;;;;;;5109568;27;19924;-56
2021/05/07 12:50:34;;;;;;;;;;;8.10;91.70;;;;;;5099593;27;20053;-60
2021/05/07 12:53:00;;;;;;;7.30;2.80;;;8.00;90.30;;;;;;5096871;28;19920;-56
2021/05/07 12:55:25;;;;;;;;;;;8.30;92.20;;;;;;5088400;28;20500;-55
2021/05/07 12:57:51;;;;;;;4.43;2.85;;;8.20;89.30;;;;;;5087429;28;19927;-57
2021/05/07 13:00:17;;;;;;;;;;;7.80;91.00;;;;;;5088788;28;20040;-56
2021/05/07 13:02:42;;;;;;;6.80;2.78;;;7.60;93.00;;;;;;5089416;28;19923;-57
2021/05/07 13:05:09;;;;;;;;;;;7.60;92.50;;;;;;5098739;27;20039;-56
2021/05/07 13:07:35;;;;;;;5.85;4.35;;;7.80;92.20;;;;;;5120406;27;19915;-56